普天間 の空港の天気 - METARとTAF

普天間飛行場 ( ROTM / ) - 沖縄県宜野湾市
飛行場実況気象(Metar)
観測時間10/20 12:56 JST (10/20 03:56 UTC)
風向・風速北北東 5m/s
視程9000m
天気現象弱いしゅう雨 もや
全天の4割程度の雲 雲底高度 460m
全天の8割程度の雲 雲底高度 1070m
全天を覆う雲 雲底高度 3350m
気温23.3℃
湿度94%
気圧1010.1hPa
METARROTM 200356Z COR 03009KT 9000 -SHRA BR SCT015 BKN035 OVC110 23/22 A2987 RMK SLP101 T2 P0020 T02330222
過去の天気等 Google飛行場航空写真 Wunderground天気予報

過去48時間のMETAR

飛行場予報(TAF)
発表時間: -
20日12時 JST ~ 20日18時 JST に一時的に
風向・風速北北東 6m/s 瞬間風速 14m/s
視程4000m
天気現象強い雨 もや
全天の8割程度の雲 雲底高度 460m
全天を覆う雲 雲底高度 1070m
20日22時 JST から
風向・風速北東 8m/s 瞬間風速 13m/s
視程10km以上
全天の4割程度の雲 雲底高度 610m
全天の8割程度の雲 雲底高度 910m
全天の8割程度の雲 雲底高度 3050m
21日1時 JST ~ 21日6時 JST に一時的に
視程8000m
天気現象弱いしゅう雨 もや
全天の8割程度の雲 雲底高度 610m
全天の8割程度の雲 雲底高度 1070m
全天の8割程度の雲 雲底高度 1370m
TAF ROTM 2003/2103 03012G22KT 6000 RA BR VCTS SCT015 BKN025 OVC090 QNH2982INS
TEMPO 2003/2009 03012G28KT 4000 +RA BR BKN015 OVC035
FM201300 04015G25KT 9999 SCT020 BKN030 BKN100 QNH2976INS
TEMPO 2016/2021 8000 -SHRA BR BKN020 BKN035 BKN045 T25/2005Z T21/2019Z
日本の空港のMETAR・TAFへのリンク

RJTT 東京国際空港
RJAA 新東京国際空港
RJBB 関西国際空港
RJOO 大阪空港
RJGG 中部国際空港
RJCC 新千歳空港
RJFF 福岡空港
ROAH 那覇空港


RJEC 旭川空港
RJCH 函館空港
RJCK 釧路空港
RJCM 女満別空港
RJCB 帯広空港
RJSA 青森空港
RJSS 仙台空港
RJSK 秋田空港
RJSF 福島空港
RJAH 茨城空港
RJSN 新潟空港
RJNT 富山空港
RJNK 小松飛行場
RJNS 静岡空港
RJOH 美保飛行場
RJOC 出雲空港
RJOB 岡山空港
RJOA 広島空港
RJOI 岩国飛行場
RJOT 高松空港
RJOM 松山空港
RJOK 高知空港
RJFR 北九州空港
RJFT 熊本空港
RJFU 長崎空港
RJFS 佐賀空港
RJFO 大分空港
RJFM 宮崎空港
RJFK 鹿児島空港
ROIG 石垣島空港
RJTY 横田飛行場
ROTM 普天間飛行場
RODN 嘉手納飛行場